sensor_id;sensor_type;location;lat;lon;timestamp;temperature;humidity
30148;DHT22;16960;49.404;8.248;2023-03-04T00:01:32;20.40;31.90
30148;DHT22;16960;49.404;8.248;2023-03-04T00:03:59;20.40;31.90
30148;DHT22;16960;49.404;8.248;2023-03-04T00:06:26;20.30;31.90
30148;DHT22;16960;49.404;8.248;2023-03-04T00:08:53;20.30;32.00
30148;DHT22;16960;49.404;8.248;2023-03-04T00:11:20;20.30;32.00
30148;DHT22;16960;49.404;8.248;2023-03-04T00:13:47;20.30;32.00
30148;DHT22;16960;49.404;8.248;2023-03-04T00:16:15;20.30;32.00
30148;DHT22;16960;49.404;8.248;2023-03-04T00:18:42;20.30;32.00
30148;DHT22;16960;49.404;8.248;2023-03-04T00:21:09;20.30;32.00
30148;DHT22;16960;49.404;8.248;2023-03-04T00:23:35;20.30;32.10
30148;DHT22;16960;49.404;8.248;2023-03-04T00:26:03;20.30;32.10
30148;DHT22;16960;49.404;8.248;2023-03-04T00:28:30;20.30;32.10
30148;DHT22;16960;49.404;8.248;2023-03-04T00:30:57;20.30;32.10
30148;DHT22;16960;49.404;8.248;2023-03-04T00:33:25;20.20;32.10
30148;DHT22;16960;49.404;8.248;2023-03-04T00:35:52;20.30;32.20
30148;DHT22;16960;49.404;8.248;2023-03-04T00:38:19;20.30;32.20
30148;DHT22;16960;49.404;8.248;2023-03-04T00:40:46;20.30;32.20
30148;DHT22;16960;49.404;8.248;2023-03-04T00:43:12;20.20;32.20
30148;DHT22;16960;49.404;8.248;2023-03-04T00:45:39;20.20;32.20
30148;DHT22;16960;49.404;8.248;2023-03-04T00:48:06;20.20;32.20
30148;DHT22;16960;49.404;8.248;2023-03-04T00:50:34;20.20;32.20
30148;DHT22;16960;49.404;8.248;2023-03-04T00:53:02;20.20;32.20
30148;DHT22;16960;49.404;8.248;2023-03-04T00:55:29;20.20;32.20
30148;DHT22;16960;49.404;8.248;2023-03-04T00:57:56;20.20;32.20
30148;DHT22;16960;49.404;8.248;2023-03-04T01:00:23;20.20;32.20
30148;DHT22;16960;49.404;8.248;2023-03-04T01:02:50;20.20;32.20
30148;DHT22;16960;49.404;8.248;2023-03-04T01:05:17;20.20;32.20
30148;DHT22;16960;49.404;8.248;2023-03-04T01:07:45;20.20;32.20
30148;DHT22;16960;49.404;8.248;2023-03-04T01:10:13;20.20;32.20
30148;DHT22;16960;49.404;8.248;2023-03-04T01:12:41;20.20;32.10
30148;DHT22;16960;49.404;8.248;2023-03-04T01:15:09;20.20;32.20
30148;DHT22;16960;49.404;8.248;2023-03-04T01:17:36;20.10;32.20
30148;DHT22;16960;49.404;8.248;2023-03-04T01:20:04;20.20;32.20
30148;DHT22;16960;49.404;8.248;2023-03-04T01:22:31;20.20;32.20
30148;DHT22;16960;49.404;8.248;2023-03-04T01:25:00;20.20;32.20
30148;DHT22;16960;49.404;8.248;2023-03-04T01:27:27;20.20;32.20
30148;DHT22;16960;49.404;8.248;2023-03-04T01:29:54;20.10;32.20
30148;DHT22;16960;49.404;8.248;2023-03-04T01:32:20;20.20;32.20
30148;DHT22;16960;49.404;8.248;2023-03-04T01:34:47;20.10;32.20
30148;DHT22;16960;49.404;8.248;2023-03-04T01:37:14;20.10;32.80
30148;DHT22;16960;49.404;8.248;2023-03-04T01:39:41;20.10;32.20
30148;DHT22;16960;49.404;8.248;2023-03-04T01:42:16;20.10;32.20
30148;DHT22;16960;49.404;8.248;2023-03-04T01:44:44;20.10;32.20
30148;DHT22;16960;49.404;8.248;2023-03-04T01:47:11;20.10;32.20
30148;DHT22;16960;49.404;8.248;2023-03-04T01:49:38;20.10;32.20
30148;DHT22;16960;49.404;8.248;2023-03-04T01:52:08;20.10;32.20
30148;DHT22;16960;49.404;8.248;2023-03-04T01:54:36;20.00;32.10
30148;DHT22;16960;49.404;8.248;2023-03-04T01:57:08;20.10;32.20
30148;DHT22;16960;49.404;8.248;2023-03-04T01:59:42;20.10;32.20
30148;DHT22;16960;49.404;8.248;2023-03-04T02:02:09;20.10;32.20
30148;DHT22;16960;49.404;8.248;2023-03-04T02:04:36;20.00;32.20
30148;DHT22;16960;49.404;8.248;2023-03-04T02:07:03;20.10;32.20
30148;DHT22;16960;49.404;8.248;2023-03-04T02:09:32;20.00;32.10
30148;DHT22;16960;49.404;8.248;2023-03-04T02:12:00;20.00;32.10
30148;DHT22;16960;49.404;8.248;2023-03-04T02:14:28;20.10;32.20
30148;DHT22;16960;49.404;8.248;2023-03-04T02:16:56;20.10;32.20
30148;DHT22;16960;49.404;8.248;2023-03-04T02:19:34;20.00;32.10
30148;DHT22;16960;49.404;8.248;2023-03-04T02:22:03;20.00;32.10
30148;DHT22;16960;49.404;8.248;2023-03-04T02:24:35;20.00;32.10
30148;DHT22;16960;49.404;8.248;2023-03-04T02:27:04;20.00;32.10
30148;DHT22;16960;49.404;8.248;2023-03-04T02:29:31;20.00;32.10
30148;DHT22;16960;49.404;8.248;2023-03-04T02:31:58;20.00;32.10
30148;DHT22;16960;49.404;8.248;2023-03-04T02:34:28;20.00;32.70
30148;DHT22;16960;49.404;8.248;2023-03-04T02:36:56;20.00;32.10
30148;DHT22;16960;49.404;8.248;2023-03-04T02:39:28;20.00;32.10
30148;DHT22;16960;49.404;8.248;2023-03-04T02:41:56;20.00;32.10
30148;DHT22;16960;49.404;8.248;2023-03-04T02:44:26;19.90;32.20
30148;DHT22;16960;49.404;8.248;2023-03-04T02:46:54;20.00;32.10
30148;DHT22;16960;49.404;8.248;2023-03-04T02:49:22;19.90;32.20
30148;DHT22;16960;49.404;8.248;2023-03-04T02:51:51;20.00;32.20
30148;DHT22;16960;49.404;8.248;2023-03-04T02:54:20;20.00;32.20
30148;DHT22;16960;49.404;8.248;2023-03-04T02:56:49;20.00;32.20
30148;DHT22;16960;49.404;8.248;2023-03-04T02:59:16;19.90;32.20
30148;DHT22;16960;49.404;8.248;2023-03-04T03:01:45;20.00;32.20
30148;DHT22;16960;49.404;8.248;2023-03-04T03:04:12;20.00;32.20
30148;DHT22;16960;49.404;8.248;2023-03-04T03:06:39;19.90;32.20
30148;DHT22;16960;49.404;8.248;2023-03-04T03:09:06;20.00;32.20
30148;DHT22;16960;49.404;8.248;2023-03-04T03:11:34;19.90;32.20
30148;DHT22;16960;49.404;8.248;2023-03-04T03:14:01;19.90;32.20
30148;DHT22;16960;49.404;8.248;2023-03-04T03:16:28;19.90;32.20
30148;DHT22;16960;49.404;8.248;2023-03-04T03:18:56;19.90;32.20
30148;DHT22;16960;49.404;8.248;2023-03-04T03:21:23;19.90;32.20
30148;DHT22;16960;49.404;8.248;2023-03-04T03:23:50;19.90;32.20
30148;DHT22;16960;49.404;8.248;2023-03-04T03:26:17;19.90;32.20
30148;DHT22;16960;49.404;8.248;2023-03-04T03:28:44;19.90;32.20
30148;DHT22;16960;49.404;8.248;2023-03-04T03:31:11;19.90;32.20
30148;DHT22;16960;49.404;8.248;2023-03-04T03:33:38;19.90;32.20
30148;DHT22;16960;49.404;8.248;2023-03-04T03:36:07;19.90;32.20
30148;DHT22;16960;49.404;8.248;2023-03-04T03:38:34;19.90;32.20
30148;DHT22;16960;49.404;8.248;2023-03-04T03:41:01;19.90;32.10
30148;DHT22;16960;49.404;8.248;2023-03-04T03:43:28;19.90;32.10
30148;DHT22;16960;49.404;8.248;2023-03-04T03:45:55;19.90;32.20
30148;DHT22;16960;49.404;8.248;2023-03-04T03:48:22;19.90;32.10
30148;DHT22;16960;49.404;8.248;2023-03-04T03:50:49;19.80;32.00
30148;DHT22;16960;49.404;8.248;2023-03-04T03:53:17;19.90;32.10
30148;DHT22;16960;49.404;8.248;2023-03-04T03:55:44;19.80;32.00
30148;DHT22;16960;49.404;8.248;2023-03-04T03:58:11;19.90;32.10
30148;DHT22;16960;49.404;8.248;2023-03-04T04:00:38;19.90;32.10
30148;DHT22;16960;49.404;8.248;2023-03-04T04:03:05;19.80;32.00
30148;DHT22;16960;49.404;8.248;2023-03-04T04:05:32;19.80;32.00
30148;DHT22;16960;49.404;8.248;2023-03-04T04:07:59;19.80;32.00
30148;DHT22;16960;49.404;8.248;2023-03-04T04:10:27;19.80;32.00
30148;DHT22;16960;49.404;8.248;2023-03-04T04:12:54;19.80;32.00
30148;DHT22;16960;49.404;8.248;2023-03-04T04:15:21;19.80;32.00
30148;DHT22;16960;49.404;8.248;2023-03-04T04:17:48;19.80;32.00
30148;DHT22;16960;49.404;8.248;2023-03-04T04:20:15;19.80;32.00
30148;DHT22;16960;49.404;8.248;2023-03-04T04:22:42;19.80;32.10
30148;DHT22;16960;49.404;8.248;2023-03-04T04:25:09;19.80;32.10
30148;DHT22;16960;49.404;8.248;2023-03-04T04:27:37;19.80;32.00
30148;DHT22;16960;49.404;8.248;2023-03-04T04:30:05;19.80;32.00
30148;DHT22;16960;49.404;8.248;2023-03-04T04:32:32;19.80;32.00
30148;DHT22;16960;49.404;8.248;2023-03-04T04:34:59;19.80;32.10
30148;DHT22;16960;49.404;8.248;2023-03-04T04:37:26;19.80;32.10
30148;DHT22;16960;49.404;8.248;2023-03-04T04:39:53;19.70;32.10
30148;DHT22;16960;49.404;8.248;2023-03-04T04:42:20;19.80;32.10
30148;DHT22;16960;49.404;8.248;2023-03-04T04:44:49;19.80;32.10
30148;DHT22;16960;49.404;8.248;2023-03-04T04:47:17;19.70;32.10
30148;DHT22;16960;49.404;8.248;2023-03-04T04:49:44;19.80;32.10
30148;DHT22;16960;49.404;8.248;2023-03-04T04:52:11;19.70;32.10
30148;DHT22;16960;49.404;8.248;2023-03-04T04:54:37;19.70;32.00
30148;DHT22;16960;49.404;8.248;2023-03-04T04:57:04;19.70;32.00
30148;DHT22;16960;49.404;8.248;2023-03-04T04:59:31;19.70;32.00
30148;DHT22;16960;49.404;8.248;2023-03-04T05:02:00;19.70;32.00
30148;DHT22;16960;49.404;8.248;2023-03-04T05:04:27;19.70;32.00
30148;DHT22;16960;49.404;8.248;2023-03-04T05:06:53;19.70;32.00
30148;DHT22;16960;49.404;8.248;2023-03-04T05:09:20;19.70;32.00
30148;DHT22;16960;49.404;8.248;2023-03-04T05:11:47;19.70;32.00
30148;DHT22;16960;49.404;8.248;2023-03-04T05:14:14;19.70;32.00
30148;DHT22;16960;49.404;8.248;2023-03-04T05:16:41;19.70;32.00
30148;DHT22;16960;49.404;8.248;2023-03-04T05:19:09;19.70;32.00
30148;DHT22;16960;49.404;8.248;2023-03-04T05:21:36;19.70;31.90
30148;DHT22;16960;49.404;8.248;2023-03-04T05:24:04;19.70;31.90
30148;DHT22;16960;49.404;8.248;2023-03-04T05:26:31;19.70;31.90
30148;DHT22;16960;49.404;8.248;2023-03-04T05:28:57;19.70;31.90
30148;DHT22;16960;49.404;8.248;2023-03-04T05:31:24;19.70;31.90
30148;DHT22;16960;49.404;8.248;2023-03-04T05:33:51;19.70;31.90
30148;DHT22;16960;49.404;8.248;2023-03-04T05:36:19;19.70;31.90
30148;DHT22;16960;49.404;8.248;2023-03-04T05:38:46;19.70;31.90
30148;DHT22;16960;49.404;8.248;2023-03-04T05:41:13;19.70;31.90
30148;DHT22;16960;49.404;8.248;2023-03-04T05:43:43;19.70;31.80
30148;DHT22;16960;49.404;8.248;2023-03-04T05:46:13;19.70;31.80
30148;DHT22;16960;49.404;8.248;2023-03-04T05:48:40;19.70;31.70
30148;DHT22;16960;49.404;8.248;2023-03-04T05:51:07;19.80;31.70
30148;DHT22;16960;49.404;8.248;2023-03-04T05:53:36;19.80;31.60
30148;DHT22;16960;49.404;8.248;2023-03-04T05:56:08;19.80;31.60
30148;DHT22;16960;49.404;8.248;2023-03-04T05:58:35;19.80;31.50
30148;DHT22;16960;49.404;8.248;2023-03-04T06:01:03;19.90;31.60
30148;DHT22;16960;49.404;8.248;2023-03-04T06:03:30;19.90;31.60
30148;DHT22;16960;49.404;8.248;2023-03-04T06:05:57;19.90;31.60
30148;DHT22;16960;49.404;8.248;2023-03-04T06:08:25;20.00;31.50
30148;DHT22;16960;49.404;8.248;2023-03-04T06:10:55;20.00;31.50
30148;DHT22;16960;49.404;8.248;2023-03-04T06:13:24;20.00;31.50
30148;DHT22;16960;49.404;8.248;2023-03-04T06:15:53;20.10;31.50
30148;DHT22;16960;49.404;8.248;2023-03-04T06:18:20;20.10;31.50
30148;DHT22;16960;49.404;8.248;2023-03-04T06:20:47;20.10;31.50
30148;DHT22;16960;49.404;8.248;2023-03-04T06:23:14;20.10;31.50
30148;DHT22;16960;49.404;8.248;2023-03-04T06:25:41;20.10;31.50
30148;DHT22;16960;49.404;8.248;2023-03-04T06:28:09;20.20;31.40
30148;DHT22;16960;49.404;8.248;2023-03-04T06:30:36;20.20;31.50
30148;DHT22;16960;49.404;8.248;2023-03-04T06:33:03;20.30;31.50
30148;DHT22;16960;49.404;8.248;2023-03-04T06:35:30;20.30;31.50
30148;DHT22;16960;49.404;8.248;2023-03-04T06:37:57;20.30;31.40
30148;DHT22;16960;49.404;8.248;2023-03-04T06:40:24;20.30;31.40
30148;DHT22;16960;49.404;8.248;2023-03-04T06:42:51;20.30;31.40
30148;DHT22;16960;49.404;8.248;2023-03-04T06:45:19;20.40;31.40
30148;DHT22;16960;49.404;8.248;2023-03-04T06:47:46;20.40;31.30
30148;DHT22;16960;49.404;8.248;2023-03-04T06:50:13;20.40;31.30
30148;DHT22;16960;49.404;8.248;2023-03-04T06:52:40;20.40;31.30
30148;DHT22;16960;49.404;8.248;2023-03-04T06:55:08;20.40;31.30
30148;DHT22;16960;49.404;8.248;2023-03-04T06:57:37;20.40;31.30
30148;DHT22;16960;49.404;8.248;2023-03-04T07:00:05;20.40;31.20
30148;DHT22;16960;49.404;8.248;2023-03-04T07:02:34;20.50;31.30
30148;DHT22;16960;49.404;8.248;2023-03-04T07:05:00;20.50;31.20
30148;DHT22;16960;49.404;8.248;2023-03-04T07:07:27;20.50;31.80
30148;DHT22;16960;49.404;8.248;2023-03-04T07:09:54;20.50;31.20
30148;DHT22;16960;49.404;8.248;2023-03-04T07:12:21;20.50;31.20
30148;DHT22;16960;49.404;8.248;2023-03-04T07:14:48;20.50;31.20
30148;DHT22;16960;49.404;8.248;2023-03-04T07:17:15;20.50;31.20
30148;DHT22;16960;49.404;8.248;2023-03-04T07:19:43;20.50;31.20
30148;DHT22;16960;49.404;8.248;2023-03-04T07:22:10;20.60;31.20
30148;DHT22;16960;49.404;8.248;2023-03-04T07:24:37;20.60;31.20
30148;DHT22;16960;49.404;8.248;2023-03-04T07:27:04;20.60;31.20
30148;DHT22;16960;49.404;8.248;2023-03-04T07:29:31;20.60;31.20
30148;DHT22;16960;49.404;8.248;2023-03-04T07:31:58;20.60;31.20
30148;DHT22;16960;49.404;8.248;2023-03-04T07:34:25;20.60;31.20
30148;DHT22;16960;49.404;8.248;2023-03-04T07:36:53;20.60;31.20
30148;DHT22;16960;49.404;8.248;2023-03-04T07:39:20;20.60;31.20
30148;DHT22;16960;49.404;8.248;2023-03-04T07:41:47;20.70;31.30
30148;DHT22;16960;49.404;8.248;2023-03-04T07:44:14;20.70;31.20
30148;DHT22;16960;49.404;8.248;2023-03-04T07:46:41;20.70;31.20
30148;DHT22;16960;49.404;8.248;2023-03-04T07:49:10;20.70;31.20
30148;DHT22;16960;49.404;8.248;2023-03-04T07:51:37;20.70;31.20
30148;DHT22;16960;49.404;8.248;2023-03-04T07:54:06;20.80;31.20
30148;DHT22;16960;49.404;8.248;2023-03-04T07:56:33;20.80;31.30
30148;DHT22;16960;49.404;8.248;2023-03-04T07:59:01;20.80;31.20
30148;DHT22;16960;49.404;8.248;2023-03-04T08:01:30;20.80;31.10
30148;DHT22;16960;49.404;8.248;2023-03-04T08:03:57;20.80;30.90
30148;DHT22;16960;49.404;8.248;2023-03-04T08:06:24;20.80;30.80
30148;DHT22;16960;49.404;8.248;2023-03-04T08:08:56;20.80;30.70
30148;DHT22;16960;49.404;8.248;2023-03-04T08:11:25;20.80;30.60
30148;DHT22;16960;49.404;8.248;2023-03-04T08:13:52;20.90;30.60
30148;DHT22;16960;49.404;8.248;2023-03-04T08:16:21;20.90;30.50
30148;DHT22;16960;49.404;8.248;2023-03-04T08:18:50;20.90;30.50
30148;DHT22;16960;49.404;8.248;2023-03-04T08:21:19;20.90;30.40
30148;DHT22;16960;49.404;8.248;2023-03-04T08:23:47;20.90;30.30
30148;DHT22;16960;49.404;8.248;2023-03-04T08:26:16;20.90;30.30
30148;DHT22;16960;49.404;8.248;2023-03-04T08:28:45;20.90;30.20
30148;DHT22;16960;49.404;8.248;2023-03-04T08:31:12;20.90;30.20
30148;DHT22;16960;49.404;8.248;2023-03-04T08:33:39;20.90;30.10
30148;DHT22;16960;49.404;8.248;2023-03-04T08:36:07;21.00;30.20
30148;DHT22;16960;49.404;8.248;2023-03-04T08:38:34;21.00;30.20
30148;DHT22;16960;49.404;8.248;2023-03-04T08:41:01;21.00;30.20
30148;DHT22;16960;49.404;8.248;2023-03-04T08:43:29;21.00;30.00
30148;DHT22;16960;49.404;8.248;2023-03-04T08:45:58;21.00;30.00
30148;DHT22;16960;49.404;8.248;2023-03-04T08:48:25;21.00;30.10
30148;DHT22;16960;49.404;8.248;2023-03-04T08:50:51;21.00;30.00
30148;DHT22;16960;49.404;8.248;2023-03-04T08:53:19;21.00;30.20
30148;DHT22;16960;49.404;8.248;2023-03-04T08:55:46;21.00;30.20
30148;DHT22;16960;49.404;8.248;2023-03-04T08:58:13;21.00;30.20
30148;DHT22;16960;49.404;8.248;2023-03-04T09:00:42;21.00;30.20
30148;DHT22;16960;49.404;8.248;2023-03-04T09:03:14;21.00;30.10
30148;DHT22;16960;49.404;8.248;2023-03-04T09:05:43;21.00;30.10
30148;DHT22;16960;49.404;8.248;2023-03-04T09:08:10;20.90;30.10
30148;DHT22;16960;49.404;8.248;2023-03-04T09:10:37;20.90;30.10
30148;DHT22;16960;49.404;8.248;2023-03-04T09:13:03;20.90;30.10
30148;DHT22;16960;49.404;8.248;2023-03-04T09:15:31;20.90;30.00
30148;DHT22;16960;49.404;8.248;2023-03-04T09:18:00;20.90;30.10
30148;DHT22;16960;49.404;8.248;2023-03-04T09:20:29;20.90;30.10
30148;DHT22;16960;49.404;8.248;2023-03-04T09:22:56;20.90;30.00
30148;DHT22;16960;49.404;8.248;2023-03-04T09:25:23;20.90;30.00
30148;DHT22;16960;49.404;8.248;2023-03-04T09:27:50;20.90;29.90
30148;DHT22;16960;49.404;8.248;2023-03-04T09:30:17;20.90;30.00
30148;DHT22;16960;49.404;8.248;2023-03-04T09:32:44;20.90;29.90
30148;DHT22;16960;49.404;8.248;2023-03-04T09:35:11;20.90;29.90
30148;DHT22;16960;49.404;8.248;2023-03-04T09:37:40;20.90;29.90
30148;DHT22;16960;49.404;8.248;2023-03-04T09:40:10;20.90;29.80
30148;DHT22;16960;49.404;8.248;2023-03-04T09:42:44;20.90;29.80
30148;DHT22;16960;49.404;8.248;2023-03-04T09:45:16;20.90;29.80
30148;DHT22;16960;49.404;8.248;2023-03-04T09:47:46;20.90;29.70
30148;DHT22;16960;49.404;8.248;2023-03-04T09:50:15;20.90;29.70
30148;DHT22;16960;49.404;8.248;2023-03-04T09:52:55;20.90;29.70
30148;DHT22;16960;49.404;8.248;2023-03-04T09:55:30;21.00;29.70
30148;DHT22;16960;49.404;8.248;2023-03-04T09:58:02;21.00;29.60
30148;DHT22;16960;49.404;8.248;2023-03-04T10:00:35;21.00;29.60
30148;DHT22;16960;49.404;8.248;2023-03-04T10:03:19;21.00;29.60
30148;DHT22;16960;49.404;8.248;2023-03-04T10:05:54;21.00;29.60
30148;DHT22;16960;49.404;8.248;2023-03-04T10:08:37;21.00;29.60
30148;DHT22;16960;49.404;8.248;2023-03-04T10:11:10;21.00;29.60
30148;DHT22;16960;49.404;8.248;2023-03-04T10:13:43;21.00;29.60
30148;DHT22;16960;49.404;8.248;2023-03-04T10:16:18;21.00;29.50
30148;DHT22;16960;49.404;8.248;2023-03-04T10:18:50;21.00;29.40
30148;DHT22;16960;49.404;8.248;2023-03-04T10:21:22;21.00;29.40
30148;DHT22;16960;49.404;8.248;2023-03-04T10:23:53;21.00;29.50
30148;DHT22;16960;49.404;8.248;2023-03-04T10:26:21;21.00;29.50
30148;DHT22;16960;49.404;8.248;2023-03-04T10:28:48;21.00;29.80
30148;DHT22;16960;49.404;8.248;2023-03-04T10:31:19;21.00;29.50
30148;DHT22;16960;49.404;8.248;2023-03-04T10:33:47;21.00;29.40
30148;DHT22;16960;49.404;8.248;2023-03-04T10:36:31;21.00;29.40
30148;DHT22;16960;49.404;8.248;2023-03-04T10:39:03;21.00;29.40
30148;DHT22;16960;49.404;8.248;2023-03-04T10:41:31;21.00;29.40
30148;DHT22;16960;49.404;8.248;2023-03-04T10:44:04;21.10;29.50
30148;DHT22;16960;49.404;8.248;2023-03-04T10:46:38;21.00;29.40
30148;DHT22;16960;49.404;8.248;2023-03-04T10:49:05;21.00;29.40
30148;DHT22;16960;49.404;8.248;2023-03-04T10:51:41;21.00;29.40
30148;DHT22;16960;49.404;8.248;2023-03-04T10:54:20;21.00;29.60
30148;DHT22;16960;49.404;8.248;2023-03-04T10:56:54;21.00;29.90
30148;DHT22;16960;49.404;8.248;2023-03-04T11:02:23;20.90;30.20
30148;DHT22;16960;49.404;8.248;2023-03-04T11:04:54;21.00;30.20
30148;DHT22;16960;49.404;8.248;2023-03-04T11:07:23;20.90;30.10
30148;DHT22;16960;49.404;8.248;2023-03-04T11:09:52;20.90;30.20
30148;DHT22;16960;49.404;8.248;2023-03-04T11:12:21;20.90;30.20
30148;DHT22;16960;49.404;8.248;2023-03-04T11:14:57;20.90;30.20
30148;DHT22;16960;49.404;8.248;2023-03-04T11:17:26;20.90;30.30
30148;DHT22;16960;49.404;8.248;2023-03-04T11:19:56;20.90;30.30
30148;DHT22;16960;49.404;8.248;2023-03-04T11:22:26;20.90;30.40
30148;DHT22;16960;49.404;8.248;2023-03-04T11:24:59;20.80;30.30
30148;DHT22;16960;49.404;8.248;2023-03-04T11:27:35;20.90;30.40
30148;DHT22;16960;49.404;8.248;2023-03-04T11:30:20;20.80;30.30
30148;DHT22;16960;49.404;8.248;2023-03-04T11:32:52;20.80;30.40
30148;DHT22;16960;49.404;8.248;2023-03-04T11:35:24;20.80;30.50
30148;DHT22;16960;49.404;8.248;2023-03-04T11:37:56;20.80;30.60
30148;DHT22;16960;49.404;8.248;2023-03-04T11:40:33;20.80;30.70
30148;DHT22;16960;49.404;8.248;2023-03-04T11:43:04;20.80;30.80
30148;DHT22;16960;49.404;8.248;2023-03-04T11:45:45;20.80;31.00
30148;DHT22;16960;49.404;8.248;2023-03-04T11:48:23;20.80;31.70
30148;DHT22;16960;49.404;8.248;2023-03-04T11:50:56;20.80;31.30
30148;DHT22;16960;49.404;8.248;2023-03-04T11:53:39;20.80;31.30
30148;DHT22;16960;49.404;8.248;2023-03-04T11:56:17;20.80;32.00
30148;DHT22;16960;49.404;8.248;2023-03-04T11:59:03;20.90;31.50
30148;DHT22;16960;49.404;8.248;2023-03-04T12:01:36;20.90;31.50
30148;DHT22;16960;49.404;8.248;2023-03-04T12:04:26;20.90;31.50
30148;DHT22;16960;49.404;8.248;2023-03-04T12:07:08;20.90;31.40
30148;DHT22;16960;49.404;8.248;2023-03-04T12:09:44;20.90;31.30
30148;DHT22;16960;49.404;8.248;2023-03-04T12:12:29;21.00;31.30
30148;DHT22;16960;49.404;8.248;2023-03-04T12:15:05;21.00;31.20
30148;DHT22;16960;49.404;8.248;2023-03-04T12:17:53;21.00;31.20
30148;DHT22;16960;49.404;8.248;2023-03-04T12:20:43;21.00;31.20
30148;DHT22;16960;49.404;8.248;2023-03-04T12:23:43;21.00;31.10
30148;DHT22;16960;49.404;8.248;2023-03-04T12:26:23;21.00;31.00
30148;DHT22;16960;49.404;8.248;2023-03-04T12:28:56;21.00;31.00
30148;DHT22;16960;49.404;8.248;2023-03-04T12:31:44;21.00;31.00
30148;DHT22;16960;49.404;8.248;2023-03-04T12:34:44;21.00;30.90
30148;DHT22;16960;49.404;8.248;2023-03-04T12:37:30;21.00;30.90
30148;DHT22;16960;49.404;8.248;2023-03-04T12:40:25;21.10;31.00
30148;DHT22;16960;49.404;8.248;2023-03-04T12:48:51;21.00;30.90
30148;DHT22;16960;49.404;8.248;2023-03-04T12:51:28;21.00;30.90
30148;DHT22;16960;49.404;8.248;2023-03-04T12:54:08;21.00;30.90
30148;DHT22;16960;49.404;8.248;2023-03-04T12:56:39;21.00;30.90
30148;DHT22;16960;49.404;8.248;2023-03-04T12:59:13;21.00;31.00
30148;DHT22;16960;49.404;8.248;2023-03-04T13:01:45;21.00;31.00
30148;DHT22;16960;49.404;8.248;2023-03-04T13:04:20;21.00;31.00
30148;DHT22;16960;49.404;8.248;2023-03-04T13:06:57;20.90;31.00
30148;DHT22;16960;49.404;8.248;2023-03-04T13:09:30;20.90;31.00
30148;DHT22;16960;49.404;8.248;2023-03-04T13:12:04;20.90;31.10
30148;DHT22;16960;49.404;8.248;2023-03-04T13:14:39;20.90;31.10
30148;DHT22;16960;49.404;8.248;2023-03-04T13:17:39;20.90;31.10
30148;DHT22;16960;49.404;8.248;2023-03-04T13:20:19;20.80;31.10
30148;DHT22;16960;49.404;8.248;2023-03-04T13:22:52;20.80;31.10
30148;DHT22;16960;49.404;8.248;2023-03-04T13:25:35;20.80;31.10
30148;DHT22;16960;49.404;8.248;2023-03-04T13:28:24;20.80;31.10
30148;DHT22;16960;49.404;8.248;2023-03-04T13:31:16;20.80;31.10
30148;DHT22;16960;49.404;8.248;2023-03-04T13:33:59;20.80;31.20
30148;DHT22;16960;49.404;8.248;2023-03-04T13:39:28;20.70;31.10
30148;DHT22;16960;49.404;8.248;2023-03-04T13:41:56;20.80;31.20
30148;DHT22;16960;49.404;8.248;2023-03-04T13:47:42;20.80;31.10
30148;DHT22;16960;49.404;8.248;2023-03-04T13:50:37;20.80;31.10
30148;DHT22;16960;49.404;8.248;2023-03-04T13:53:38;20.80;31.20
30148;DHT22;16960;49.404;8.248;2023-03-04T13:59:04;20.80;31.10
30148;DHT22;16960;49.404;8.248;2023-03-04T14:01:53;20.80;31.10
30148;DHT22;16960;49.404;8.248;2023-03-04T14:04:23;20.80;31.10
30148;DHT22;16960;49.404;8.248;2023-03-04T14:06:54;20.80;31.10
30148;DHT22;16960;49.404;8.248;2023-03-04T14:09:24;20.80;31.00
30148;DHT22;16960;49.404;8.248;2023-03-04T14:11:53;20.80;31.00
30148;DHT22;16960;49.404;8.248;2023-03-04T14:14:24;20.80;31.10
30148;DHT22;16960;49.404;8.248;2023-03-04T14:16:54;20.80;31.30
30148;DHT22;16960;49.404;8.248;2023-03-04T14:19:25;20.80;31.30
30148;DHT22;16960;49.404;8.248;2023-03-04T14:21:54;20.90;31.30
30148;DHT22;16960;49.404;8.248;2023-03-04T14:24:23;20.90;31.30
30148;DHT22;16960;49.404;8.248;2023-03-04T14:27:03;20.90;31.30
30148;DHT22;16960;49.404;8.248;2023-03-04T14:29:32;20.90;31.20
30148;DHT22;16960;49.404;8.248;2023-03-04T14:31:59;20.90;31.20
30148;DHT22;16960;49.404;8.248;2023-03-04T14:34:30;20.90;31.20
30148;DHT22;16960;49.404;8.248;2023-03-04T14:36:59;20.90;31.80
30148;DHT22;16960;49.404;8.248;2023-03-04T14:39:29;20.90;31.20
30148;DHT22;16960;49.404;8.248;2023-03-04T14:42:00;20.90;31.20
30148;DHT22;16960;49.404;8.248;2023-03-04T14:44:31;20.90;31.70
30148;DHT22;16960;49.404;8.248;2023-03-04T14:47:08;20.90;31.10
30148;DHT22;16960;49.404;8.248;2023-03-04T14:49:37;20.90;31.10
30148;DHT22;16960;49.404;8.248;2023-03-04T14:52:06;21.00;31.00
30148;DHT22;16960;49.404;8.248;2023-03-04T14:54:35;20.90;31.00
30148;DHT22;16960;49.404;8.248;2023-03-04T14:57:21;21.00;31.00
30148;DHT22;16960;49.404;8.248;2023-03-04T14:59:49;21.00;31.00
30148;DHT22;16960;49.404;8.248;2023-03-04T15:02:22;21.00;31.00
30148;DHT22;16960;49.404;8.248;2023-03-04T15:04:50;21.00;31.00
30148;DHT22;16960;49.404;8.248;2023-03-04T15:07:29;21.00;30.90
30148;DHT22;16960;49.404;8.248;2023-03-04T15:09:57;21.00;30.90
30148;DHT22;16960;49.404;8.248;2023-03-04T15:12:27;21.00;30.90
30148;DHT22;16960;49.404;8.248;2023-03-04T15:14:55;21.00;30.90
30148;DHT22;16960;49.404;8.248;2023-03-04T15:17:30;21.10;31.00
30148;DHT22;16960;49.404;8.248;2023-03-04T15:20:19;21.00;30.90
30148;DHT22;16960;49.404;8.248;2023-03-04T15:23:04;21.00;30.90
30148;DHT22;16960;49.404;8.248;2023-03-04T15:25:33;21.00;31.20
30148;DHT22;16960;49.404;8.248;2023-03-04T15:28:02;20.90;31.00
30148;DHT22;16960;49.404;8.248;2023-03-04T15:30:31;20.90;31.00
30148;DHT22;16960;49.404;8.248;2023-03-04T15:32:58;20.90;31.00
30148;DHT22;16960;49.404;8.248;2023-03-04T15:35:27;20.90;31.10
30148;DHT22;16960;49.404;8.248;2023-03-04T15:37:55;20.90;31.10
30148;DHT22;16960;49.404;8.248;2023-03-04T15:40:31;20.90;31.10
30148;DHT22;16960;49.404;8.248;2023-03-04T15:43:00;20.80;31.00
30148;DHT22;16960;49.404;8.248;2023-03-04T15:45:29;20.80;31.10
30148;DHT22;16960;49.404;8.248;2023-03-04T15:47:57;20.80;31.10
30148;DHT22;16960;49.404;8.248;2023-03-04T15:50:27;20.80;31.10
30148;DHT22;16960;49.404;8.248;2023-03-04T15:52:56;20.80;31.10
30148;DHT22;16960;49.404;8.248;2023-03-04T15:55:24;20.70;31.20
30148;DHT22;16960;49.404;8.248;2023-03-04T15:57:54;20.60;31.10
30148;DHT22;16960;49.404;8.248;2023-03-04T16:00:22;20.70;31.20
30148;DHT22;16960;49.404;8.248;2023-03-04T16:02:49;20.70;31.20
30148;DHT22;16960;49.404;8.248;2023-03-04T16:05:16;20.70;31.30
30148;DHT22;16960;49.404;8.248;2023-03-04T16:07:47;20.70;31.20